Terminal Aerodrome Forecast
Issued by NWS

Current Version | Previous Version | Text Only | Print | Product List | Glossary Off
Versions: 1 2 3 4 5 6 7 8 9 10 11 12 13 14 15 16 17 18 19 20 21 22 23 24 25 26

000
FTUS41 KRLX 261914 AAB
TAFCKB
TAF AMD
KCKB 261914Z 2619/2718 27008KT P6SM -SHRA VCTS FEW035CB SCT090
      BKN110
     FM262300 26009KT P6SM BKN035 OVC100
     FM270500 27005KT P6SM BKN003
     FM270700 24005KT 4SM BR BKN008
     FM270800 VRB03KT 1 1/2SM BR SCT001
     FM271100 22004KT 5SM BR SCT015
     FM271400 22006KT P6SM FEW250=

USA.gov is the U.S. government's official web portal to all federal, state and local government web resources and services.